createdAt,value
2023-04-14T00:02:07.868Z,3.90
2023-04-14T00:06:09.581Z,3.80
2023-04-14T00:10:11.345Z,3.70
2023-04-14T00:14:13.003Z,3.60
2023-04-14T00:18:14.619Z,3.60
2023-04-14T00:22:16.371Z,3.50
2023-04-14T00:26:18.027Z,3.50
2023-04-14T00:30:19.790Z,3.40
2023-04-14T00:34:21.434Z,3.30
2023-04-14T00:38:23.772Z,3.30
2023-04-14T00:42:25.434Z,3.30
2023-04-14T00:46:27.441Z,3.20
2023-04-14T00:50:29.241Z,3.20
2023-04-14T00:54:32.373Z,3.10
2023-04-14T00:58:34.555Z,3.10
2023-04-14T01:02:36.599Z,3.00
2023-04-14T01:06:38.471Z,3.00
2023-04-14T01:10:58.121Z,3.00
2023-04-14T01:15:20.392Z,2.90
2023-04-14T01:19:32.865Z,2.90
2023-04-14T01:23:46.474Z,2.90
2023-04-14T01:28:05.069Z,2.80
2023-04-14T01:32:11.262Z,2.80
2023-04-14T01:36:24.566Z,2.80
2023-04-14T01:40:27.695Z,2.70
2023-04-14T01:44:31.168Z,2.70
2023-04-14T01:48:33.759Z,2.70
2023-04-14T01:52:37.392Z,2.60
2023-04-14T01:56:41.939Z,2.60
2023-04-14T02:00:44.407Z,2.50
2023-04-14T02:04:47.505Z,2.50
2023-04-14T02:08:49.947Z,2.40
2023-04-14T02:12:54.397Z,2.50
2023-04-14T02:16:59.070Z,2.50
2023-04-14T02:21:03.543Z,2.40
2023-04-14T02:25:05.923Z,2.30
2023-04-14T02:29:15.321Z,2.30
2023-04-14T02:33:22.041Z,2.30
2023-04-14T02:37:31.443Z,2.30
2023-04-14T02:41:33.320Z,2.30
2023-04-14T02:45:38.998Z,2.20
2023-04-14T02:49:44.253Z,2.20
2023-04-14T02:53:46.397Z,2.20
2023-04-14T02:57:49.945Z,2.20
2023-04-14T03:01:52.646Z,2.00
2023-04-14T03:05:55.256Z,2.00
2023-04-14T03:09:58.043Z,2.00
2023-04-14T03:14:00.611Z,1.90
2023-04-14T03:18:02.926Z,1.90
2023-04-14T03:22:04.791Z,1.90
2023-04-14T03:26:07.583Z,1.90
2023-04-14T03:30:12.937Z,1.90
2023-04-14T03:34:16.272Z,1.80
2023-04-14T03:38:19.934Z,1.70
2023-04-14T03:42:25.566Z,1.70
2023-04-14T03:46:28.985Z,1.70
2023-04-14T03:50:36.717Z,1.80
2023-04-14T03:54:40.372Z,1.60
2023-04-14T03:58:49.246Z,1.60
2023-04-14T04:02:51.602Z,1.60
2023-04-14T04:06:54.151Z,1.60
2023-04-14T04:10:56.583Z,1.50
2023-04-14T04:14:58.385Z,1.50
2023-04-14T04:19:03.381Z,1.50
2023-04-14T04:23:07.269Z,1.60
2023-04-14T04:27:20.352Z,1.60
2023-04-14T04:31:28.880Z,1.50
2023-04-14T04:35:32.438Z,1.50
2023-04-14T04:39:34.054Z,1.50
2023-04-14T04:43:35.685Z,1.50
2023-04-14T04:47:37.327Z,1.50
2023-04-14T04:51:38.965Z,1.50
2023-04-14T04:55:41.902Z,1.60
2023-04-14T04:59:43.522Z,1.60
2023-04-14T05:03:46.032Z,1.50
2023-04-14T05:07:47.671Z,1.60
2023-04-14T05:11:49.317Z,1.60
2023-04-14T05:15:51.866Z,1.60
2023-04-14T05:19:53.546Z,1.70
2023-04-14T05:23:55.497Z,1.70
2023-04-14T05:27:57.272Z,1.70
2023-04-14T05:31:58.900Z,1.80
2023-04-14T05:36:01.064Z,1.80
2023-04-14T05:40:03.782Z,1.90
2023-04-14T05:44:05.491Z,1.90
2023-04-14T05:48:07.476Z,2.00
2023-04-14T05:52:09.234Z,2.20
2023-04-14T05:56:11.581Z,2.30
2023-04-14T06:00:13.933Z,2.40
2023-04-14T06:04:16.176Z,2.60
2023-04-14T06:08:19.079Z,2.90
2023-04-14T06:12:21.009Z,3.20
2023-04-14T06:16:22.712Z,3.50
2023-04-14T06:20:25.543Z,3.80
2023-04-14T06:24:27.241Z,4.00
2023-04-14T06:28:28.944Z,4.20
2023-04-14T06:32:30.604Z,4.40
2023-04-14T06:36:32.762Z,4.70
2023-04-14T06:40:34.363Z,4.80
2023-04-14T06:44:36.025Z,5.00
2023-04-14T06:48:37.686Z,5.20
2023-04-14T06:52:39.337Z,5.40
2023-04-14T06:56:41.368Z,5.60
2023-04-14T07:00:43.316Z,5.80
2023-04-14T07:04:45.299Z,6.00
2023-04-14T07:08:46.969Z,6.20
2023-04-14T07:12:48.605Z,6.20
2023-04-14T07:16:51.540Z,6.40
2023-04-14T07:20:54.185Z,6.50
2023-04-14T07:24:56.018Z,6.80
2023-04-14T07:28:57.747Z,7.00
2023-04-14T07:33:02.089Z,7.20
2023-04-14T07:37:03.786Z,7.80
2023-04-14T07:41:07.028Z,8.30
2023-04-14T07:45:09.100Z,8.90
2023-04-14T07:49:11.140Z,9.20
2023-04-14T07:53:12.829Z,9.80
2023-04-14T07:57:14.510Z,10.10
2023-04-14T08:01:16.634Z,10.20
2023-04-14T08:05:18.439Z,10.30
2023-04-14T08:09:20.154Z,10.60
2023-04-14T08:13:21.978Z,10.70
2023-04-14T08:17:24.270Z,11.10
2023-04-14T08:21:26.906Z,11.40
2023-04-14T08:25:28.550Z,11.90
2023-04-14T08:29:30.281Z,12.00
2023-04-14T08:33:33.718Z,12.40
2023-04-14T08:37:35.488Z,12.40
2023-04-14T08:41:39.068Z,13.10
2023-04-14T08:45:41.778Z,13.20
2023-04-14T08:50:14.696Z,13.50
2023-04-14T08:54:17.962Z,14.30
2023-04-14T08:58:19.700Z,15.10
2023-04-14T09:02:21.746Z,15.10
2023-04-14T09:06:24.061Z,15.50
2023-04-14T09:10:26.318Z,15.90
2023-04-14T09:14:28.701Z,15.80
2023-04-14T09:18:31.411Z,16.50
2023-04-14T09:22:36.822Z,16.50
2023-04-14T09:26:38.788Z,17.10
2023-04-14T09:30:40.717Z,16.80
2023-04-14T09:34:56.574Z,17.50
2023-04-14T09:39:00.400Z,18.20
2023-04-14T09:43:02.095Z,19.00
2023-04-14T09:47:05.627Z,20.40
2023-04-14T09:51:10.705Z,20.60
2023-04-14T09:55:14.158Z,19.40
2023-04-14T09:59:15.798Z,20.50
2023-04-14T10:03:31.268Z,21.10
2023-04-14T10:07:33.716Z,20.70
2023-04-14T10:11:36.369Z,21.60
2023-04-14T10:15:38.103Z,21.90
2023-04-14T10:19:39.765Z,22.70
2023-04-14T10:23:42.906Z,22.90
2023-04-14T10:27:45.100Z,22.10
2023-04-14T10:32:03.290Z,22.20
2023-04-14T10:36:05.512Z,20.90
2023-04-14T10:40:07.987Z,20.90
2023-04-14T10:44:26.733Z,21.10
2023-04-14T10:48:36.579Z,19.60
2023-04-14T10:52:39.194Z,19.50
2023-04-14T10:56:41.309Z,20.70
2023-04-14T11:00:44.025Z,21.40
2023-04-14T11:05:11.618Z,21.50
2023-04-14T11:09:32.056Z,20.30
2023-04-14T11:13:34.894Z,20.50
2023-04-14T11:17:40.803Z,20.30
2023-04-14T11:21:49.929Z,20.60
2023-04-14T11:25:51.695Z,20.50
2023-04-14T11:29:54.853Z,21.20
2023-04-14T11:33:56.692Z,20.90
2023-04-14T11:37:59.836Z,21.50
2023-04-14T11:42:01.634Z,20.80
2023-04-14T11:46:05.461Z,20.90
2023-04-14T11:50:09.000Z,20.50
2023-04-14T11:54:12.784Z,20.60
2023-04-14T11:58:16.091Z,20.90
2023-04-14T12:02:20.068Z,22.00
2023-04-14T12:06:22.427Z,21.40
2023-04-14T12:10:24.875Z,21.70
2023-04-14T12:14:26.630Z,21.90
2023-04-14T12:18:29.341Z,22.30
2023-04-14T12:22:31.265Z,22.60
2023-04-14T12:26:33.957Z,22.90
2023-04-14T12:30:37.297Z,23.30
2023-04-14T12:34:39.373Z,23.30
2023-04-14T12:38:41.662Z,24.40
2023-04-14T12:42:47.086Z,24.60
2023-04-14T12:46:50.622Z,23.80
2023-04-14T12:51:11.123Z,21.40
2023-04-14T12:55:28.653Z,20.00
2023-04-14T12:59:31.566Z,20.30
2023-04-14T13:03:42.415Z,20.00
2023-04-14T13:07:44.489Z,19.80
2023-04-14T13:11:46.144Z,19.90
2023-04-14T13:16:13.978Z,18.50
2023-04-14T13:20:10.249Z,19.10
2023-04-14T13:24:11.919Z,20.40
2023-04-14T13:28:13.624Z,20.70
2023-04-14T13:32:15.368Z,21.30
2023-04-14T13:36:17.085Z,21.70
2023-04-14T13:40:18.789Z,21.20
2023-04-14T13:44:20.507Z,21.20
2023-04-14T13:48:22.136Z,20.40
2023-04-14T13:52:23.785Z,18.60
2023-04-14T13:56:27.066Z,17.90
2023-04-14T14:00:28.752Z,17.20
2023-04-14T14:04:30.897Z,17.40
2023-04-14T14:08:35.017Z,19.20
2023-04-14T14:12:36.901Z,19.70
2023-04-14T14:16:39.086Z,20.30
2023-04-14T14:20:40.778Z,19.70
2023-04-14T14:24:42.580Z,18.90
2023-04-14T14:28:46.048Z,17.90
2023-04-14T14:32:47.767Z,18.20
2023-04-14T14:36:49.513Z,19.30
2023-04-14T14:40:51.282Z,20.40
2023-04-14T14:44:53.034Z,20.70
2023-04-14T14:48:54.717Z,20.90
2023-04-14T14:52:56.820Z,20.80
2023-04-14T14:56:58.574Z,21.20
2023-04-14T15:01:00.691Z,21.30
2023-04-14T15:05:02.686Z,20.10
2023-04-14T15:09:05.340Z,18.80
2023-04-14T15:13:07.480Z,18.20
2023-04-14T15:17:09.176Z,17.80
2023-04-14T15:21:11.344Z,17.20
2023-04-14T15:25:13.307Z,16.70
2023-04-14T15:29:16.327Z,16.50
2023-04-14T15:33:17.986Z,16.30
2023-04-14T15:37:19.754Z,16.10
2023-04-14T15:41:21.645Z,16.30
2023-04-14T15:45:23.470Z,16.20
2023-04-14T15:49:25.983Z,16.10
2023-04-14T15:53:27.642Z,15.90
2023-04-14T15:57:29.295Z,16.20
2023-04-14T16:01:30.965Z,16.20
2023-04-14T16:05:32.795Z,15.70
2023-04-14T16:09:35.360Z,15.70
2023-04-14T16:13:36.992Z,15.90
2023-04-14T16:17:38.751Z,15.90
2023-04-14T16:21:40.795Z,15.90
2023-04-14T16:25:42.475Z,15.70
2023-04-14T16:29:44.434Z,15.40
2023-04-14T16:33:46.175Z,15.20
2023-04-14T16:37:47.820Z,14.80
2023-04-14T16:41:49.627Z,14.50
2023-04-14T16:45:51.791Z,14.40
2023-04-14T16:49:53.872Z,14.30
2023-04-14T16:53:56.129Z,14.30
2023-04-14T16:57:58.275Z,14.40
2023-04-14T17:02:00.944Z,14.20
2023-04-14T17:06:02.989Z,14.10
2023-04-14T17:10:04.978Z,14.10
2023-04-14T17:14:06.662Z,14.10
2023-04-14T17:18:08.415Z,14.00
2023-04-14T17:22:10.179Z,14.00
2023-04-14T17:26:11.784Z,13.90
2023-04-14T17:30:14.545Z,13.70
2023-04-14T17:34:18.350Z,13.60
2023-04-14T17:38:20.860Z,13.60
2023-04-14T17:42:24.853Z,13.50
2023-04-14T17:46:33.389Z,13.40
2023-04-14T17:50:35.130Z,13.40
2023-04-14T17:54:36.935Z,13.10
2023-04-14T17:58:38.681Z,13.00
2023-04-14T18:02:41.251Z,12.80
2023-04-14T18:06:43.061Z,12.60
2023-04-14T18:10:45.863Z,12.50
2023-04-14T18:14:49.359Z,12.30
2023-04-14T18:18:50.990Z,12.30
2023-04-14T18:22:57.541Z,12.10
2023-04-14T18:26:59.387Z,11.80
2023-04-14T18:31:01.473Z,11.90
2023-04-14T18:35:03.486Z,11.80
2023-04-14T18:39:06.705Z,11.70
2023-04-14T18:43:08.343Z,11.50
2023-04-14T18:47:10.277Z,11.50
2023-04-14T18:51:11.986Z,11.30
2023-04-14T18:55:14.179Z,11.10
2023-04-14T18:59:15.847Z,11.00
2023-04-14T19:03:18.460Z,10.80
2023-04-14T19:07:20.262Z,10.60
2023-04-14T19:11:21.951Z,10.60
2023-04-14T19:15:26.004Z,10.40
2023-04-14T19:19:27.620Z,10.20
2023-04-14T19:23:30.027Z,10.10
2023-04-14T19:27:32.975Z,10.10
2023-04-14T19:31:34.780Z,9.90
2023-04-14T19:35:36.451Z,9.80
2023-04-14T19:39:38.128Z,9.80
2023-04-14T19:43:39.793Z,9.70
2023-04-14T19:47:41.464Z,9.70
2023-04-14T19:51:43.602Z,9.60
2023-04-14T19:55:50.278Z,9.50
2023-04-14T19:59:51.946Z,9.30
2023-04-14T20:04:05.648Z,9.20
2023-04-14T20:08:13.930Z,9.00
2023-04-14T20:12:15.688Z,9.00
2023-04-14T20:16:17.378Z,9.00
2023-04-14T20:20:19.617Z,9.00
2023-04-14T20:24:21.294Z,8.90
2023-04-14T20:28:25.542Z,8.90
2023-04-14T20:32:27.355Z,8.80
2023-04-14T20:36:31.540Z,8.70
2023-04-14T20:40:33.671Z,8.60
2023-04-14T20:44:35.301Z,8.50
2023-04-14T20:48:36.968Z,8.50
2023-04-14T20:52:39.589Z,8.50
2023-04-14T20:56:41.291Z,8.60
2023-04-14T21:00:43.267Z,8.60
2023-04-14T21:04:45.047Z,8.70
2023-04-14T21:08:47.187Z,8.70
2023-04-14T21:14:57.759Z,8.60
2023-04-14T21:17:10.572Z,8.40
2023-04-14T21:21:12.903Z,8.30
2023-04-14T21:25:15.398Z,8.30
2023-04-14T21:29:17.088Z,8.20
2023-04-14T21:33:19.170Z,8.10
2023-04-14T21:37:20.793Z,8.10
2023-04-14T21:41:22.475Z,7.80
2023-04-14T21:45:24.939Z,7.70
2023-04-14T21:49:26.601Z,7.50
2023-04-14T21:53:28.349Z,7.40
2023-04-14T21:57:45.765Z,7.20
2023-04-14T22:01:51.173Z,6.90
2023-04-14T22:05:53.237Z,6.70
2023-04-14T22:09:55.339Z,6.60
2023-04-14T22:13:57.998Z,6.40
2023-04-14T22:17:59.881Z,6.40
2023-04-14T22:22:01.572Z,6.30
2023-04-14T22:26:03.485Z,6.00
2023-04-14T22:30:05.562Z,6.10
2023-04-14T22:34:07.459Z,6.00
2023-04-14T22:38:09.357Z,5.90
2023-04-14T22:42:11.039Z,5.90
2023-04-14T22:46:12.821Z,5.90
2023-04-14T22:50:14.475Z,5.80
2023-04-14T22:54:16.285Z,5.70
2023-04-14T22:58:19.985Z,5.50
2023-04-14T23:02:21.936Z,5.40
2023-04-14T23:06:24.083Z,5.30
2023-04-14T23:10:25.882Z,5.30
2023-04-14T23:14:28.217Z,5.20
2023-04-14T23:18:29.915Z,5.10
2023-04-14T23:22:31.556Z,5.00
2023-04-14T23:26:33.470Z,4.90
2023-04-14T23:30:35.260Z,4.90
2023-04-14T23:34:37.491Z,4.90
2023-04-14T23:38:39.307Z,4.90
2023-04-14T23:42:41.320Z,4.90
2023-04-14T23:46:42.982Z,4.90
2023-04-14T23:51:01.149Z,4.90
2023-04-14T23:55:06.920Z,5.00
2023-04-14T23:59:09.352Z,4.90
